sensor_id;sensor_type;location;lat;lon;timestamp;P1;durP1;ratioP1;P2;durP2;ratioP2
35239;SDS011;21376;50.954;4.716;2022-07-11T00:01:12;4.95;;;3.92;;
35239;SDS011;21376;50.954;4.716;2022-07-11T00:03:39;4.72;;;3.95;;
35239;SDS011;21376;50.954;4.716;2022-07-11T00:15:47;4.78;;;4.03;;
35239;SDS011;21376;50.954;4.716;2022-07-11T00:20:45;7.63;;;4.30;;
35239;SDS011;21376;50.954;4.716;2022-07-11T00:23:14;4.65;;;3.92;;
35239;SDS011;21376;50.954;4.716;2022-07-11T00:25:41;5.80;;;4.35;;
35239;SDS011;21376;50.954;4.716;2022-07-11T00:28:10;7.32;;;4.28;;
35239;SDS011;21376;50.954;4.716;2022-07-11T00:30:38;6.22;;;4.25;;
35239;SDS011;21376;50.954;4.716;2022-07-11T00:33:08;7.30;;;4.18;;
35239;SDS011;21376;50.954;4.716;2022-07-11T00:35:37;8.50;;;4.20;;
35239;SDS011;21376;50.954;4.716;2022-07-11T00:38:04;6.45;;;4.45;;
35239;SDS011;21376;50.954;4.716;2022-07-11T00:40:33;7.72;;;4.82;;
35239;SDS011;21376;50.954;4.716;2022-07-11T00:43:04;6.47;;;4.50;;
35239;SDS011;21376;50.954;4.716;2022-07-11T00:45:34;7.03;;;4.45;;
35239;SDS011;21376;50.954;4.716;2022-07-11T00:48:00;7.53;;;4.90;;
35239;SDS011;21376;50.954;4.716;2022-07-11T00:50:29;8.27;;;4.90;;
35239;SDS011;21376;50.954;4.716;2022-07-11T00:52:55;7.00;;;4.63;;
35239;SDS011;21376;50.954;4.716;2022-07-11T00:57:58;9.32;;;4.95;;
35239;SDS011;21376;50.954;4.716;2022-07-11T01:00:26;5.85;;;4.70;;
35239;SDS011;21376;50.954;4.716;2022-07-11T01:02:52;6.68;;;4.45;;
35239;SDS011;21376;50.954;4.716;2022-07-11T01:10:38;9.80;;;5.18;;
35239;SDS011;21376;50.954;4.716;2022-07-11T01:13:05;8.68;;;4.70;;
35239;SDS011;21376;50.954;4.716;2022-07-11T01:15:35;6.30;;;5.07;;
35239;SDS011;21376;50.954;4.716;2022-07-11T01:18:04;6.88;;;5.07;;
35239;SDS011;21376;50.954;4.716;2022-07-11T01:26:09;7.18;;;4.70;;
35239;SDS011;21376;50.954;4.716;2022-07-11T01:28:53;5.28;;;4.57;;
35239;SDS011;21376;50.954;4.716;2022-07-11T01:31:25;8.52;;;5.10;;
35239;SDS011;21376;50.954;4.716;2022-07-11T01:42:02;8.35;;;5.95;;
35239;SDS011;21376;50.954;4.716;2022-07-11T01:47:47;10.38;;;7.05;;
35239;SDS011;21376;50.954;4.716;2022-07-11T01:50:15;9.27;;;7.57;;
35239;SDS011;21376;50.954;4.716;2022-07-11T01:55:16;8.30;;;6.65;;
35239;SDS011;21376;50.954;4.716;2022-07-11T01:57:45;9.93;;;7.60;;
35239;SDS011;21376;50.954;4.716;2022-07-11T02:06:16;9.90;;;6.80;;
35239;SDS011;21376;50.954;4.716;2022-07-11T02:08:45;8.27;;;6.65;;
35239;SDS011;21376;50.954;4.716;2022-07-11T02:11:14;7.43;;;6.65;;
35239;SDS011;21376;50.954;4.716;2022-07-11T02:16:12;7.97;;;6.20;;
35239;SDS011;21376;50.954;4.716;2022-07-11T02:18:38;9.73;;;6.45;;
35239;SDS011;21376;50.954;4.716;2022-07-11T02:21:07;8.73;;;5.88;;
35239;SDS011;21376;50.954;4.716;2022-07-11T02:26:06;8.43;;;6.55;;
35239;SDS011;21376;50.954;4.716;2022-07-11T02:37:53;10.05;;;7.15;;
35239;SDS011;21376;50.954;4.716;2022-07-11T02:40:19;7.00;;;6.30;;
35239;SDS011;21376;50.954;4.716;2022-07-11T02:42:48;9.65;;;6.53;;
35239;SDS011;21376;50.954;4.716;2022-07-11T02:45:15;8.48;;;6.90;;
35239;SDS011;21376;50.954;4.716;2022-07-11T02:47:40;11.13;;;6.68;;
35239;SDS011;21376;50.954;4.716;2022-07-11T02:50:08;10.30;;;7.13;;
35239;SDS011;21376;50.954;4.716;2022-07-11T02:52:40;10.05;;;7.45;;
35239;SDS011;21376;50.954;4.716;2022-07-11T02:55:08;10.15;;;7.72;;
35239;SDS011;21376;50.954;4.716;2022-07-11T02:57:37;8.60;;;6.95;;
35239;SDS011;21376;50.954;4.716;2022-07-11T03:02:47;9.30;;;7.55;;
35239;SDS011;21376;50.954;4.716;2022-07-11T03:07:43;9.65;;;8.02;;
35239;SDS011;21376;50.954;4.716;2022-07-11T03:10:14;14.65;;;8.63;;
35239;SDS011;21376;50.954;4.716;2022-07-11T03:12:43;13.73;;;9.02;;
35239;SDS011;21376;50.954;4.716;2022-07-11T03:15:13;16.75;;;8.35;;
35239;SDS011;21376;50.954;4.716;2022-07-11T03:17:42;13.68;;;8.35;;
35239;SDS011;21376;50.954;4.716;2022-07-11T03:20:11;10.70;;;9.40;;
35239;SDS011;21376;50.954;4.716;2022-07-11T03:22:39;10.55;;;8.90;;
35239;SDS011;21376;50.954;4.716;2022-07-11T03:27:56;10.90;;;9.05;;
35239;SDS011;21376;50.954;4.716;2022-07-11T03:35:19;11.80;;;8.35;;
35239;SDS011;21376;50.954;4.716;2022-07-11T03:38:10;13.35;;;8.77;;
35239;SDS011;21376;50.954;4.716;2022-07-11T03:40:42;11.65;;;9.07;;
35239;SDS011;21376;50.954;4.716;2022-07-11T03:48:22;15.43;;;9.70;;
35239;SDS011;21376;50.954;4.716;2022-07-11T03:53:54;13.52;;;9.30;;
35239;SDS011;21376;50.954;4.716;2022-07-11T03:56:23;11.43;;;9.25;;
35239;SDS011;21376;50.954;4.716;2022-07-11T03:58:52;16.50;;;10.45;;
35239;SDS011;21376;50.954;4.716;2022-07-11T04:01:21;12.70;;;9.00;;
35239;SDS011;21376;50.954;4.716;2022-07-11T04:03:47;12.55;;;9.10;;
35239;SDS011;21376;50.954;4.716;2022-07-11T04:06:17;11.52;;;8.98;;
35239;SDS011;21376;50.954;4.716;2022-07-11T04:08:43;11.98;;;8.82;;
35239;SDS011;21376;50.954;4.716;2022-07-11T04:11:11;10.18;;;8.63;;
35239;SDS011;21376;50.954;4.716;2022-07-11T04:13:40;10.20;;;7.85;;
35239;SDS011;21376;50.954;4.716;2022-07-11T04:16:06;11.80;;;8.88;;
35239;SDS011;21376;50.954;4.716;2022-07-11T04:18:32;15.75;;;8.65;;
35239;SDS011;21376;50.954;4.716;2022-07-11T04:23:27;12.70;;;8.93;;
35239;SDS011;21376;50.954;4.716;2022-07-11T04:25:59;12.38;;;8.25;;
35239;SDS011;21376;50.954;4.716;2022-07-11T04:31:51;13.20;;;8.27;;
35239;SDS011;21376;50.954;4.716;2022-07-11T04:36:47;12.95;;;8.93;;
35239;SDS011;21376;50.954;4.716;2022-07-11T04:41:45;9.93;;;8.75;;
35239;SDS011;21376;50.954;4.716;2022-07-11T04:47:40;7.07;;;6.35;;
35239;SDS011;21376;50.954;4.716;2022-07-11T04:53:05;6.53;;;5.32;;
35239;SDS011;21376;50.954;4.716;2022-07-11T04:55:31;9.38;;;5.40;;
35239;SDS011;21376;50.954;4.716;2022-07-11T04:58:07;6.40;;;5.60;;
35239;SDS011;21376;50.954;4.716;2022-07-11T05:00:35;9.95;;;5.82;;
35239;SDS011;21376;50.954;4.716;2022-07-11T05:05:39;9.55;;;6.30;;
35239;SDS011;21376;50.954;4.716;2022-07-11T05:08:11;6.57;;;5.80;;
35239;SDS011;21376;50.954;4.716;2022-07-11T05:10:40;10.18;;;7.03;;
35239;SDS011;21376;50.954;4.716;2022-07-11T05:13:13;10.57;;;6.07;;
35239;SDS011;21376;50.954;4.716;2022-07-11T05:15:56;8.43;;;5.47;;
35239;SDS011;21376;50.954;4.716;2022-07-11T05:18:25;8.15;;;5.30;;
35239;SDS011;21376;50.954;4.716;2022-07-11T05:25:51;9.23;;;5.93;;
35239;SDS011;21376;50.954;4.716;2022-07-11T05:28:20;11.57;;;6.63;;
35239;SDS011;21376;50.954;4.716;2022-07-11T05:35:43;10.52;;;9.52;;
35239;SDS011;21376;50.954;4.716;2022-07-11T05:38:12;12.52;;;8.80;;
35239;SDS011;21376;50.954;4.716;2022-07-11T05:40:41;11.05;;;9.35;;
35239;SDS011;21376;50.954;4.716;2022-07-11T05:43:13;14.00;;;11.13;;
35239;SDS011;21376;50.954;4.716;2022-07-11T05:45:46;15.18;;;12.55;;
35239;SDS011;21376;50.954;4.716;2022-07-11T05:48:28;14.23;;;12.23;;
35239;SDS011;21376;50.954;4.716;2022-07-11T05:50:56;16.77;;;11.88;;
35239;SDS011;21376;50.954;4.716;2022-07-11T05:55:54;16.35;;;11.50;;
35239;SDS011;21376;50.954;4.716;2022-07-11T06:01:03;13.43;;;12.02;;
35239;SDS011;21376;50.954;4.716;2022-07-11T06:03:40;18.13;;;13.05;;
35239;SDS011;21376;50.954;4.716;2022-07-11T06:06:07;15.15;;;11.10;;
35239;SDS011;21376;50.954;4.716;2022-07-11T06:08:36;16.20;;;11.38;;
35239;SDS011;21376;50.954;4.716;2022-07-11T06:13:38;15.70;;;11.23;;
35239;SDS011;21376;50.954;4.716;2022-07-11T06:16:16;14.20;;;10.25;;
35239;SDS011;21376;50.954;4.716;2022-07-11T06:18:43;16.65;;;10.20;;
35239;SDS011;21376;50.954;4.716;2022-07-11T06:21:13;14.48;;;10.00;;
35239;SDS011;21376;50.954;4.716;2022-07-11T06:23:42;17.77;;;9.77;;
35239;SDS011;21376;50.954;4.716;2022-07-11T06:31:09;14.82;;;9.25;;
35239;SDS011;21376;50.954;4.716;2022-07-11T06:33:35;12.68;;;9.48;;
35239;SDS011;21376;50.954;4.716;2022-07-11T06:40:52;16.77;;;8.45;;
35239;SDS011;21376;50.954;4.716;2022-07-11T06:43:18;13.48;;;9.68;;
35239;SDS011;21376;50.954;4.716;2022-07-11T06:45:45;15.57;;;9.25;;
35239;SDS011;21376;50.954;4.716;2022-07-11T06:48:15;13.18;;;8.90;;
35239;SDS011;21376;50.954;4.716;2022-07-11T06:50:41;12.38;;;8.73;;
35239;SDS011;21376;50.954;4.716;2022-07-11T06:55:36;11.80;;;8.73;;
35239;SDS011;21376;50.954;4.716;2022-07-11T06:58:01;12.50;;;8.68;;
35239;SDS011;21376;50.954;4.716;2022-07-11T07:00:31;11.27;;;8.32;;
35239;SDS011;21376;50.954;4.716;2022-07-11T07:05:28;12.73;;;9.40;;
35239;SDS011;21376;50.954;4.716;2022-07-11T07:07:55;13.18;;;8.80;;
35239;SDS011;21376;50.954;4.716;2022-07-11T07:13:06;12.55;;;9.20;;
35239;SDS011;21376;50.954;4.716;2022-07-11T07:15:35;13.27;;;9.95;;
35239;SDS011;21376;50.954;4.716;2022-07-11T07:18:13;15.23;;;10.50;;
35239;SDS011;21376;50.954;4.716;2022-07-11T07:23:38;16.38;;;9.73;;
35239;SDS011;21376;50.954;4.716;2022-07-11T07:26:04;12.40;;;7.60;;
35239;SDS011;21376;50.954;4.716;2022-07-11T07:28:36;11.43;;;6.78;;
35239;SDS011;21376;50.954;4.716;2022-07-11T07:31:12;8.93;;;6.97;;
35239;SDS011;21376;50.954;4.716;2022-07-11T07:33:38;9.93;;;5.47;;
35239;SDS011;21376;50.954;4.716;2022-07-11T07:36:04;6.15;;;5.00;;
35239;SDS011;21376;50.954;4.716;2022-07-11T07:38:30;11.07;;;6.43;;
35239;SDS011;21376;50.954;4.716;2022-07-11T07:52:42;9.38;;;5.63;;
35239;SDS011;21376;50.954;4.716;2022-07-11T07:55:08;9.63;;;5.13;;
35239;SDS011;21376;50.954;4.716;2022-07-11T07:57:53;8.32;;;4.70;;
35239;SDS011;21376;50.954;4.716;2022-07-11T08:00:24;7.40;;;4.57;;
35239;SDS011;21376;50.954;4.716;2022-07-11T08:03:22;9.32;;;4.97;;
35239;SDS011;21376;50.954;4.716;2022-07-11T08:05:50;7.88;;;4.40;;
35239;SDS011;21376;50.954;4.716;2022-07-11T08:08:18;7.63;;;3.88;;
35239;SDS011;21376;50.954;4.716;2022-07-11T08:10:45;5.93;;;3.95;;
35239;SDS011;21376;50.954;4.716;2022-07-11T08:13:11;5.28;;;3.45;;
35239;SDS011;21376;50.954;4.716;2022-07-11T08:15:43;6.50;;;3.03;;
35239;SDS011;21376;50.954;4.716;2022-07-11T08:18:12;6.05;;;3.30;;
35239;SDS011;21376;50.954;4.716;2022-07-11T08:20:41;6.57;;;4.20;;
35239;SDS011;21376;50.954;4.716;2022-07-11T08:25:39;9.07;;;3.75;;
35239;SDS011;21376;50.954;4.716;2022-07-11T08:30:40;6.10;;;3.85;;
35239;SDS011;21376;50.954;4.716;2022-07-11T08:33:16;9.95;;;3.97;;
35239;SDS011;21376;50.954;4.716;2022-07-11T08:35:49;9.75;;;4.13;;
35239;SDS011;21376;50.954;4.716;2022-07-11T08:38:18;10.73;;;4.47;;
35239;SDS011;21376;50.954;4.716;2022-07-11T08:40:48;6.40;;;3.60;;
35239;SDS011;21376;50.954;4.716;2022-07-11T08:43:15;11.57;;;3.90;;
35239;SDS011;21376;50.954;4.716;2022-07-11T08:45:42;7.32;;;3.85;;
35239;SDS011;21376;50.954;4.716;2022-07-11T08:50:38;8.45;;;3.65;;
35239;SDS011;21376;50.954;4.716;2022-07-11T08:53:05;5.35;;;3.25;;
35239;SDS011;21376;50.954;4.716;2022-07-11T08:55:33;5.55;;;2.92;;
35239;SDS011;21376;50.954;4.716;2022-07-11T08:58:03;7.38;;;3.17;;
35239;SDS011;21376;50.954;4.716;2022-07-11T09:00:34;7.63;;;3.28;;
35239;SDS011;21376;50.954;4.716;2022-07-11T09:03:03;9.52;;;3.10;;
35239;SDS011;21376;50.954;4.716;2022-07-11T09:05:33;5.50;;;2.95;;
35239;SDS011;21376;50.954;4.716;2022-07-11T09:10:30;8.75;;;3.20;;
35239;SDS011;21376;50.954;4.716;2022-07-11T09:13:05;6.72;;;3.08;;
35239;SDS011;21376;50.954;4.716;2022-07-11T09:18:00;6.20;;;2.80;;
35239;SDS011;21376;50.954;4.716;2022-07-11T09:20:26;5.60;;;2.63;;
35239;SDS011;21376;50.954;4.716;2022-07-11T09:23:20;6.35;;;2.50;;
35239;SDS011;21376;50.954;4.716;2022-07-11T09:26:04;6.55;;;2.60;;
35239;SDS011;21376;50.954;4.716;2022-07-11T09:31:14;7.28;;;2.65;;
35239;SDS011;21376;50.954;4.716;2022-07-11T09:33:56;6.28;;;2.80;;
35239;SDS011;21376;50.954;4.716;2022-07-11T09:36:47;5.28;;;2.35;;
35239;SDS011;21376;50.954;4.716;2022-07-11T09:39:27;7.18;;;2.50;;
35239;SDS011;21376;50.954;4.716;2022-07-11T09:41:55;6.20;;;2.60;;
35239;SDS011;21376;50.954;4.716;2022-07-11T09:44:23;7.22;;;3.00;;
35239;SDS011;21376;50.954;4.716;2022-07-11T09:46:54;11.70;;;2.75;;
35239;SDS011;21376;50.954;4.716;2022-07-11T09:49:38;4.18;;;2.28;;
35239;SDS011;21376;50.954;4.716;2022-07-11T09:52:07;8.13;;;2.55;;
35239;SDS011;21376;50.954;4.716;2022-07-11T09:54:56;7.47;;;2.35;;
35239;SDS011;21376;50.954;4.716;2022-07-11T09:57:35;2.90;;;2.00;;
35239;SDS011;21376;50.954;4.716;2022-07-11T10:02:37;3.95;;;2.60;;
35239;SDS011;21376;50.954;4.716;2022-07-11T10:05:05;4.15;;;2.15;;
35239;SDS011;21376;50.954;4.716;2022-07-11T10:07:34;7.55;;;2.97;;
35239;SDS011;21376;50.954;4.716;2022-07-11T10:10:00;7.75;;;3.17;;
35239;SDS011;21376;50.954;4.716;2022-07-11T10:12:28;6.00;;;2.67;;
35239;SDS011;21376;50.954;4.716;2022-07-11T10:14:57;6.28;;;2.63;;
35239;SDS011;21376;50.954;4.716;2022-07-11T10:17:46;5.40;;;2.78;;
35239;SDS011;21376;50.954;4.716;2022-07-11T10:20:53;4.68;;;2.60;;
35239;SDS011;21376;50.954;4.716;2022-07-11T10:26:54;6.18;;;3.40;;
35239;SDS011;21376;50.954;4.716;2022-07-11T10:29:45;7.13;;;3.40;;
35239;SDS011;21376;50.954;4.716;2022-07-11T10:32:18;4.38;;;3.03;;
35239;SDS011;21376;50.954;4.716;2022-07-11T10:35:04;4.47;;;2.63;;
35239;SDS011;21376;50.954;4.716;2022-07-11T10:37:46;6.30;;;3.90;;
35239;SDS011;21376;50.954;4.716;2022-07-11T10:45:54;6.82;;;4.57;;
35239;SDS011;21376;50.954;4.716;2022-07-11T10:51:27;6.85;;;5.70;;
35239;SDS011;21376;50.954;4.716;2022-07-11T11:00:25;6.15;;;4.82;;
35239;SDS011;21376;50.954;4.716;2022-07-11T11:05:52;6.95;;;4.50;;
35239;SDS011;21376;50.954;4.716;2022-07-11T11:11:05;4.97;;;3.80;;
35239;SDS011;21376;50.954;4.716;2022-07-11T11:16:53;7.43;;;4.78;;
35239;SDS011;21376;50.954;4.716;2022-07-11T11:22:21;4.72;;;4.18;;
35239;SDS011;21376;50.954;4.716;2022-07-11T11:24:52;4.75;;;4.25;;
35239;SDS011;21376;50.954;4.716;2022-07-11T11:27:20;6.40;;;4.80;;
35239;SDS011;21376;50.954;4.716;2022-07-11T11:29:48;5.65;;;4.43;;
35239;SDS011;21376;50.954;4.716;2022-07-11T11:32:19;8.70;;;4.07;;
35239;SDS011;21376;50.954;4.716;2022-07-11T11:34:46;4.97;;;4.00;;
35239;SDS011;21376;50.954;4.716;2022-07-11T11:37:14;4.43;;;3.80;;
35239;SDS011;21376;50.954;4.716;2022-07-11T11:39:43;4.68;;;3.33;;
35239;SDS011;21376;50.954;4.716;2022-07-11T11:42:11;6.43;;;3.67;;
35239;SDS011;21376;50.954;4.716;2022-07-11T11:44:52;6.70;;;4.00;;
35239;SDS011;21376;50.954;4.716;2022-07-11T11:47:26;5.40;;;4.00;;
35239;SDS011;21376;50.954;4.716;2022-07-11T11:52:23;4.18;;;3.80;;
35239;SDS011;21376;50.954;4.716;2022-07-11T11:54:56;4.75;;;3.72;;
35239;SDS011;21376;50.954;4.716;2022-07-11T11:57:27;5.65;;;3.75;;
35239;SDS011;21376;50.954;4.716;2022-07-11T11:59:53;4.07;;;3.50;;
35239;SDS011;21376;50.954;4.716;2022-07-11T12:02:26;6.32;;;4.05;;
35239;SDS011;21376;50.954;4.716;2022-07-11T12:04:53;5.57;;;3.72;;
35239;SDS011;21376;50.954;4.716;2022-07-11T12:07:29;4.95;;;4.45;;
35239;SDS011;21376;50.954;4.716;2022-07-11T12:12:29;4.63;;;4.20;;
35239;SDS011;21376;50.954;4.716;2022-07-11T12:15:24;4.90;;;4.35;;
35239;SDS011;21376;50.954;4.716;2022-07-11T12:17:55;5.70;;;3.92;;
35239;SDS011;21376;50.954;4.716;2022-07-11T12:20:36;5.25;;;4.75;;
35239;SDS011;21376;50.954;4.716;2022-07-11T12:23:14;5.00;;;4.20;;
35239;SDS011;21376;50.954;4.716;2022-07-11T12:25:46;5.85;;;4.63;;
35239;SDS011;21376;50.954;4.716;2022-07-11T12:28:19;6.30;;;4.40;;
35239;SDS011;21376;50.954;4.716;2022-07-11T12:30:45;5.82;;;5.25;;
35239;SDS011;21376;50.954;4.716;2022-07-11T12:33:13;6.40;;;4.72;;
35239;SDS011;21376;50.954;4.716;2022-07-11T12:38:26;5.75;;;5.00;;
35239;SDS011;21376;50.954;4.716;2022-07-11T12:41:12;6.53;;;5.50;;
35239;SDS011;21376;50.954;4.716;2022-07-11T12:43:51;6.60;;;5.38;;
35239;SDS011;21376;50.954;4.716;2022-07-11T12:46:38;8.00;;;5.50;;
35239;SDS011;21376;50.954;4.716;2022-07-11T12:49:07;6.78;;;6.07;;
35239;SDS011;21376;50.954;4.716;2022-07-11T12:51:39;7.05;;;5.30;;
35239;SDS011;21376;50.954;4.716;2022-07-11T12:54:10;5.88;;;5.28;;
35239;SDS011;21376;50.954;4.716;2022-07-11T13:04:53;6.20;;;5.60;;
35239;SDS011;21376;50.954;4.716;2022-07-11T13:10:57;6.68;;;6.03;;
35239;SDS011;21376;50.954;4.716;2022-07-11T13:13:25;8.60;;;6.35;;
35239;SDS011;21376;50.954;4.716;2022-07-11T13:15:53;7.13;;;5.53;;
35239;SDS011;21376;50.954;4.716;2022-07-11T13:18:20;7.40;;;6.35;;
35239;SDS011;21376;50.954;4.716;2022-07-11T13:20:46;8.07;;;5.40;;
35239;SDS011;21376;50.954;4.716;2022-07-11T13:23:12;7.00;;;6.35;;
35239;SDS011;21376;50.954;4.716;2022-07-11T13:25:38;8.43;;;6.90;;
35239;SDS011;21376;50.954;4.716;2022-07-11T13:28:05;5.97;;;5.38;;
35239;SDS011;21376;50.954;4.716;2022-07-11T13:30:35;6.57;;;5.18;;
35239;SDS011;21376;50.954;4.716;2022-07-11T13:33:04;7.75;;;5.03;;
35239;SDS011;21376;50.954;4.716;2022-07-11T13:35:35;6.97;;;6.15;;
35239;SDS011;21376;50.954;4.716;2022-07-11T13:38:03;10.20;;;6.72;;
35239;SDS011;21376;50.954;4.716;2022-07-11T13:40:32;6.00;;;5.40;;
35239;SDS011;21376;50.954;4.716;2022-07-11T13:42:58;7.85;;;5.43;;
35239;SDS011;21376;50.954;4.716;2022-07-11T13:45:25;6.43;;;5.80;;
35239;SDS011;21376;50.954;4.716;2022-07-11T13:47:53;6.78;;;6.00;;
35239;SDS011;21376;50.954;4.716;2022-07-11T13:50:19;8.43;;;5.32;;
35239;SDS011;21376;50.954;4.716;2022-07-11T13:52:48;7.15;;;5.18;;
35239;SDS011;21376;50.954;4.716;2022-07-11T13:55:18;5.35;;;4.72;;
35239;SDS011;21376;50.954;4.716;2022-07-11T13:57:50;8.82;;;6.25;;
35239;SDS011;21376;50.954;4.716;2022-07-11T14:02:53;7.95;;;5.85;;
35239;SDS011;21376;50.954;4.716;2022-07-11T14:05:31;7.97;;;5.85;;
35239;SDS011;21376;50.954;4.716;2022-07-11T14:13:51;5.40;;;4.88;;
35239;SDS011;21376;50.954;4.716;2022-07-11T14:18:48;6.35;;;5.53;;
35239;SDS011;21376;50.954;4.716;2022-07-11T14:21:26;7.97;;;5.43;;
35239;SDS011;21376;50.954;4.716;2022-07-11T14:23:53;5.75;;;5.25;;
35239;SDS011;21376;50.954;4.716;2022-07-11T14:26:22;5.22;;;4.72;;
35239;SDS011;21376;50.954;4.716;2022-07-11T14:31:22;8.68;;;5.88;;
35239;SDS011;21376;50.954;4.716;2022-07-11T14:33:52;7.18;;;5.20;;
35239;SDS011;21376;50.954;4.716;2022-07-11T14:36:25;6.75;;;6.03;;
35239;SDS011;21376;50.954;4.716;2022-07-11T14:38:54;6.80;;;6.10;;
35239;SDS011;21376;50.954;4.716;2022-07-11T14:41:26;8.48;;;5.45;;
35239;SDS011;21376;50.954;4.716;2022-07-11T14:46:24;7.00;;;5.22;;
35239;SDS011;21376;50.954;4.716;2022-07-11T14:48:50;6.85;;;4.82;;
35239;SDS011;21376;50.954;4.716;2022-07-11T14:51:16;6.07;;;4.75;;
35239;SDS011;21376;50.954;4.716;2022-07-11T14:53:41;5.32;;;4.63;;
35239;SDS011;21376;50.954;4.716;2022-07-11T14:56:13;4.70;;;4.20;;
35239;SDS011;21376;50.954;4.716;2022-07-11T14:58:41;7.38;;;4.00;;
35239;SDS011;21376;50.954;4.716;2022-07-11T15:01:10;4.88;;;4.32;;
35239;SDS011;21376;50.954;4.716;2022-07-11T15:03:37;4.03;;;3.63;;
35239;SDS011;21376;50.954;4.716;2022-07-11T15:08:33;4.40;;;4.00;;
35239;SDS011;21376;50.954;4.716;2022-07-11T15:16:41;9.38;;;5.10;;
35239;SDS011;21376;50.954;4.716;2022-07-11T15:19:09;8.48;;;5.57;;
35239;SDS011;21376;50.954;4.716;2022-07-11T15:21:36;7.72;;;4.90;;
35239;SDS011;21376;50.954;4.716;2022-07-11T15:24:08;5.35;;;4.80;;
35239;SDS011;21376;50.954;4.716;2022-07-11T15:26:40;4.70;;;4.30;;
35239;SDS011;21376;50.954;4.716;2022-07-11T15:29:07;5.13;;;4.63;;
35239;SDS011;21376;50.954;4.716;2022-07-11T15:34:06;5.20;;;4.50;;
35239;SDS011;21376;50.954;4.716;2022-07-11T15:36:33;5.15;;;4.65;;
35239;SDS011;21376;50.954;4.716;2022-07-11T15:38:59;4.60;;;4.20;;
35239;SDS011;21376;50.954;4.716;2022-07-11T15:41:33;5.32;;;4.82;;
35239;SDS011;21376;50.954;4.716;2022-07-11T15:43:59;5.18;;;4.72;;
35239;SDS011;21376;50.954;4.716;2022-07-11T15:49:24;7.63;;;4.95;;
35239;SDS011;21376;50.954;4.716;2022-07-11T15:51:50;4.65;;;4.25;;
35239;SDS011;21376;50.954;4.716;2022-07-11T15:54:17;5.15;;;4.75;;
35239;SDS011;21376;50.954;4.716;2022-07-11T15:56:43;5.78;;;4.47;;
35239;SDS011;21376;50.954;4.716;2022-07-11T15:59:09;5.93;;;4.22;;
35239;SDS011;21376;50.954;4.716;2022-07-11T16:01:38;6.38;;;4.50;;
35239;SDS011;21376;50.954;4.716;2022-07-11T16:04:06;4.82;;;4.43;;
35239;SDS011;21376;50.954;4.716;2022-07-11T16:06:35;6.93;;;4.95;;
35239;SDS011;21376;50.954;4.716;2022-07-11T16:09:04;6.85;;;4.75;;
35239;SDS011;21376;50.954;4.716;2022-07-11T16:11:32;6.47;;;5.70;;
35239;SDS011;21376;50.954;4.716;2022-07-11T16:14:00;6.35;;;5.70;;
35239;SDS011;21376;50.954;4.716;2022-07-11T16:16:29;5.72;;;5.22;;
35239;SDS011;21376;50.954;4.716;2022-07-11T16:18:55;5.50;;;4.65;;
35239;SDS011;21376;50.954;4.716;2022-07-11T16:21:24;5.50;;;5.00;;
35239;SDS011;21376;50.954;4.716;2022-07-11T16:23:55;5.93;;;4.60;;
35239;SDS011;21376;50.954;4.716;2022-07-11T16:26:24;5.75;;;5.03;;
35239;SDS011;21376;50.954;4.716;2022-07-11T16:28:57;5.30;;;4.80;;
35239;SDS011;21376;50.954;4.716;2022-07-11T16:31:28;6.72;;;5.22;;
35239;SDS011;21376;50.954;4.716;2022-07-11T16:33:54;5.07;;;4.57;;
35239;SDS011;21376;50.954;4.716;2022-07-11T16:36:21;5.60;;;4.40;;
35239;SDS011;21376;50.954;4.716;2022-07-11T16:38:49;4.63;;;4.05;;
35239;SDS011;21376;50.954;4.716;2022-07-11T16:41:35;5.65;;;4.47;;
35239;SDS011;21376;50.954;4.716;2022-07-11T16:44:23;4.70;;;4.05;;
35239;SDS011;21376;50.954;4.716;2022-07-11T16:46:49;6.75;;;4.25;;
35239;SDS011;21376;50.954;4.716;2022-07-11T16:49:15;4.38;;;3.97;;
35239;SDS011;21376;50.954;4.716;2022-07-11T16:51:42;6.07;;;3.97;;
35239;SDS011;21376;50.954;4.716;2022-07-11T16:54:11;4.65;;;3.67;;
35239;SDS011;21376;50.954;4.716;2022-07-11T16:59:09;6.90;;;4.30;;
35239;SDS011;21376;50.954;4.716;2022-07-11T17:04:07;4.93;;;3.65;;
35239;SDS011;21376;50.954;4.716;2022-07-11T17:09:04;5.32;;;3.45;;
35239;SDS011;21376;50.954;4.716;2022-07-11T17:11:32;4.72;;;3.15;;
35239;SDS011;21376;50.954;4.716;2022-07-11T17:14:00;3.53;;;3.20;;
35239;SDS011;21376;50.954;4.716;2022-07-11T17:16:29;6.72;;;3.35;;
35239;SDS011;21376;50.954;4.716;2022-07-11T17:18:59;5.22;;;3.40;;
35239;SDS011;21376;50.954;4.716;2022-07-11T17:21:29;4.05;;;3.00;;
35239;SDS011;21376;50.954;4.716;2022-07-11T17:23:59;4.60;;;3.20;;
35239;SDS011;21376;50.954;4.716;2022-07-11T17:26:26;10.48;;;3.72;;
35239;SDS011;21376;50.954;4.716;2022-07-11T17:28:55;6.50;;;3.58;;
35239;SDS011;21376;50.954;4.716;2022-07-11T17:31:24;4.75;;;3.42;;
35239;SDS011;21376;50.954;4.716;2022-07-11T17:33:51;4.10;;;2.80;;
35239;SDS011;21376;50.954;4.716;2022-07-11T17:41:27;3.85;;;2.35;;
35239;SDS011;21376;50.954;4.716;2022-07-11T17:43:56;2.75;;;2.55;;
35239;SDS011;21376;50.954;4.716;2022-07-11T17:46:24;6.18;;;2.63;;
35239;SDS011;21376;50.954;4.716;2022-07-11T17:51:30;3.92;;;2.58;;
35239;SDS011;21376;50.954;4.716;2022-07-11T18:01:25;6.20;;;2.50;;
35239;SDS011;21376;50.954;4.716;2022-07-11T18:04:02;4.40;;;2.90;;
35239;SDS011;21376;50.954;4.716;2022-07-11T18:09:00;3.40;;;2.70;;
35239;SDS011;21376;50.954;4.716;2022-07-11T18:11:27;3.45;;;2.42;;
35239;SDS011;21376;50.954;4.716;2022-07-11T18:13:54;4.15;;;2.42;;
35239;SDS011;21376;50.954;4.716;2022-07-11T18:22:29;5.13;;;3.03;;
35239;SDS011;21376;50.954;4.716;2022-07-11T18:24:57;3.05;;;2.75;;
35239;SDS011;21376;50.954;4.716;2022-07-11T18:27:27;4.47;;;3.08;;
35239;SDS011;21376;50.954;4.716;2022-07-11T18:29:56;5.53;;;2.83;;
35239;SDS011;21376;50.954;4.716;2022-07-11T18:32:25;3.83;;;2.72;;
35239;SDS011;21376;50.954;4.716;2022-07-11T18:41:29;3.78;;;3.28;;
35239;SDS011;21376;50.954;4.716;2022-07-11T18:46:29;6.53;;;3.35;;
35239;SDS011;21376;50.954;4.716;2022-07-11T18:49:02;4.22;;;3.60;;
35239;SDS011;21376;50.954;4.716;2022-07-11T18:56:55;3.95;;;3.55;;
35239;SDS011;21376;50.954;4.716;2022-07-11T18:59:31;5.75;;;4.20;;
35239;SDS011;21376;50.954;4.716;2022-07-11T19:04:30;5.53;;;3.97;;
35239;SDS011;21376;50.954;4.716;2022-07-11T19:06:57;6.70;;;3.78;;
35239;SDS011;21376;50.954;4.716;2022-07-11T19:09:26;9.25;;;4.95;;
35239;SDS011;21376;50.954;4.716;2022-07-11T19:12:01;5.32;;;4.82;;
35239;SDS011;21376;50.954;4.716;2022-07-11T19:14:28;7.93;;;4.50;;
35239;SDS011;21376;50.954;4.716;2022-07-11T19:16:59;5.82;;;4.40;;
35239;SDS011;21376;50.954;4.716;2022-07-11T19:19:25;7.25;;;4.90;;
35239;SDS011;21376;50.954;4.716;2022-07-11T19:27:57;7.93;;;4.97;;
35239;SDS011;21376;50.954;4.716;2022-07-11T19:30:26;5.72;;;4.70;;
35239;SDS011;21376;50.954;4.716;2022-07-11T19:32:53;7.07;;;4.65;;
35239;SDS011;21376;50.954;4.716;2022-07-11T19:40:34;7.18;;;4.63;;
35239;SDS011;21376;50.954;4.716;2022-07-11T19:43:00;6.72;;;4.28;;
35239;SDS011;21376;50.954;4.716;2022-07-11T19:47:57;7.22;;;4.60;;
35239;SDS011;21376;50.954;4.716;2022-07-11T19:52:54;7.95;;;4.05;;
35239;SDS011;21376;50.954;4.716;2022-07-11T19:55:20;6.68;;;4.20;;
35239;SDS011;21376;50.954;4.716;2022-07-11T19:58:04;4.65;;;4.25;;
35239;SDS011;21376;50.954;4.716;2022-07-11T20:00:30;8.68;;;4.40;;
35239;SDS011;21376;50.954;4.716;2022-07-11T20:02:56;5.95;;;4.45;;
35239;SDS011;21376;50.954;4.716;2022-07-11T20:05:22;4.88;;;4.05;;
35239;SDS011;21376;50.954;4.716;2022-07-11T20:07:49;6.70;;;4.40;;
35239;SDS011;21376;50.954;4.716;2022-07-11T20:10:17;4.82;;;4.30;;
35239;SDS011;21376;50.954;4.716;2022-07-11T20:12:43;4.88;;;4.15;;
35239;SDS011;21376;50.954;4.716;2022-07-11T20:15:12;4.85;;;3.75;;